Time;durP1;ratioP1;P1;durP2;ratioP2;P2;SDS_P1;SDS_P2;PMS_P1;PMS_P2;Temp;Humidity;BMP_temperature;BMP_pressure;BME280_temperature;BME280_humidity;BME280_pressure;Samples;Min_cycle;Max_cycle;Signal;HPM_P1;HPM_P2
2021/09/28 00:02:11;;;;;;;1999.90;999.90;;;;;;;17.10;100.00;95828.41;5069937;28;20204;-70
2021/09/28 00:04:38;;;;;;;1999.90;999.90;;;;;;;17.18;100.00;95826.81;5069790;28;20232;-71
2021/09/28 00:07:07;;;;;;;1999.90;999.90;;;;;;;17.21;100.00;95826.13;5069856;28;20243;-71
2021/09/28 00:09:34;;;;;;;1999.90;999.90;;;;;;;17.11;100.00;95823.94;5069822;28;20585;-70
2021/09/28 00:12:01;;;;;;;1999.90;999.90;;;;;;;17.28;100.00;95826.38;5069727;28;20228;-70
2021/09/28 00:14:28;;;;;;;1999.90;999.90;;;;;;;17.17;100.00;95828.66;5069668;28;20227;-70
2021/09/28 00:16:55;;;;;;;1999.90;999.90;;;;;;;17.12;100.00;95828.88;5069429;28;20250;-70
2021/09/28 00:19:22;;;;;;;1999.90;999.90;;;;;;;17.15;100.00;95822.94;5069329;28;20266;-70
2021/09/28 00:21:49;;;;;;;1999.90;999.90;;;;;;;17.06;100.00;95822.28;5069663;28;20185;-70
2021/09/28 00:24:17;;;;;;;1999.90;999.90;;;;;;;17.01;100.00;95819.09;5069552;28;20193;-70
2021/09/28 00:26:44;;;;;;;1999.90;999.90;;;;;;;16.93;100.00;95820.75;5069182;28;20244;-69
2021/09/28 00:29:11;;;;;;;1999.90;999.90;;;;;;;16.89;100.00;95822.44;5069027;28;20208;-70
2021/09/28 00:31:38;;;;;;;1999.90;999.90;;;;;;;16.89;100.00;95827.72;5069505;28;20204;-70
2021/09/28 00:34:05;;;;;;;1999.90;999.90;;;;;;;16.84;100.00;95827.91;5069385;28;20716;-70
2021/09/28 00:36:32;;;;;;;1999.90;999.90;;;;;;;16.78;100.00;95823.97;5069440;28;20201;-70
2021/09/28 00:38:59;;;;;;;1999.90;999.90;;;;;;;16.75;100.00;95812.25;5069044;28;20236;-71
2021/09/28 00:41:28;;;;;;;1999.90;999.90;;;;;;;16.73;100.00;95818.94;5069448;28;20226;-71
2021/09/28 00:43:58;;;;;;;1999.90;999.90;;;;;;;16.66;100.00;95816.81;5069252;28;20277;-70
2021/09/28 00:46:26;;;;;;;1999.90;999.90;;;;;;;16.65;100.00;95817.16;5068974;28;20220;-70
2021/09/28 00:48:54;;;;;;;1999.90;999.90;;;;;;;16.58;100.00;95811.63;5069057;28;20303;-70
2021/09/28 00:51:22;;;;;;;1999.90;999.90;;;;;;;16.55;100.00;95813.03;5068963;28;20258;-70
2021/09/28 00:53:53;;;;;;;1999.90;999.90;;;;;;;16.60;100.00;95804.22;5068944;28;20200;-71
2021/09/28 00:56:21;;;;;;;1999.90;999.90;;;;;;;16.62;100.00;95813.31;5069229;28;20287;-70
2021/09/28 00:58:52;;;;;;;1999.90;999.90;;;;;;;16.62;100.00;95813.31;5069224;28;20204;-70
2021/09/28 01:01:19;;;;;;;1999.90;999.90;;;;;;;16.62;100.00;95815.19;5068804;28;20245;-70
2021/09/28 01:03:46;;;;;;;1999.90;999.90;;;;;;;16.54;100.00;95815.97;5072412;28;20657;-70
2021/09/28 01:06:13;;;;;;;1999.90;999.90;;;;;;;16.48;100.00;95818.06;5072847;28;20966;-70
2021/09/28 01:08:40;;;;;;;1999.90;999.90;;;;;;;16.46;100.00;95814.97;5072998;28;20306;-69
2021/09/28 01:11:07;;;;;;;1999.90;999.90;;;;;;;16.43;100.00;95817.47;5072924;28;20196;-70
2021/09/28 01:13:34;;;;;;;1999.90;999.90;;;;;;;16.54;100.00;95821.22;5073225;28;20273;-70
2021/09/28 01:16:11;;;;;;;1999.90;999.90;;;;;;;16.48;100.00;95827.78;5073221;28;20589;-70
2021/09/28 01:18:40;;;;;;;1999.90;999.90;;;;;;;16.51;100.00;95827.13;5073055;28;20554;-70
2021/09/28 01:21:10;;;;;;;1999.90;999.90;;;;;;;16.44;100.00;95824.28;5072540;28;20240;-70
2021/09/28 01:23:44;;;;;;;1999.90;999.90;;;;;;;16.49;100.00;95819.56;5072692;28;20238;-70
2021/09/28 01:26:12;;;;;;;1999.90;999.90;;;;;;;16.46;100.00;95822.06;5072880;28;20235;-70
2021/09/28 01:28:40;;;;;;;1999.90;999.90;;;;;;;16.46;100.00;95820.22;5072575;28;20295;-70
2021/09/28 01:31:07;;;;;;;1999.90;999.90;;;;;;;16.55;100.00;95828.00;5072452;28;20188;-70
2021/09/28 01:33:34;;;;;;;1999.90;999.90;;;;;;;16.53;100.00;95817.84;5072738;28;20307;-70
2021/09/28 01:36:01;;;;;;;1999.90;999.90;;;;;;;16.51;100.00;95829.75;5072220;28;20295;-71
2021/09/28 01:38:30;;;;;;;1999.90;999.90;;;;;;;16.51;100.00;95821.88;5072261;28;20201;-71
2021/09/28 01:40:57;;;;;;;1999.90;999.90;;;;;;;16.57;100.00;95820.59;5072297;28;20201;-71
2021/09/28 01:43:25;;;;;;;1999.90;999.90;;;;;;;16.50;100.00;95818.47;5072536;28;20200;-71
2021/09/28 01:45:56;;;;;;;1999.90;999.90;;;;;;;16.45;100.00;95817.91;5072189;28;20200;-71
2021/09/28 01:48:26;;;;;;;1999.90;999.90;;;;;;;16.43;100.00;95820.88;5072228;28;21067;-71
2021/09/28 01:50:53;;;;;;;1999.90;999.90;;;;;;;16.42;100.00;95824.59;5072372;28;20214;-69
2021/09/28 01:53:20;;;;;;;1999.90;999.90;;;;;;;16.46;100.00;95824.69;5071439;28;20196;-70
2021/09/28 01:55:49;;;;;;;1999.90;999.90;;;;;;;16.48;100.00;95819.91;5072046;28;20204;-71
2021/09/28 01:58:17;;;;;;;1999.90;999.90;;;;;;;16.45;100.00;95818.69;5071953;28;20197;-71
2021/09/28 02:00:45;;;;;;;1999.90;999.90;;;;;;;16.43;100.00;95826.13;5069482;28;20208;-71
2021/09/28 02:03:12;;;;;;;1999.90;999.90;;;;;;;16.42;100.00;95831.69;5053379;28;20239;-72
2021/09/28 02:05:39;;;;;;;1999.90;999.90;;;;;;;16.38;100.00;95828.19;5061910;28;20258;-71
2021/09/28 02:08:07;;;;;;;1999.90;999.90;;;;;;;16.35;100.00;95825.09;5070428;28;20314;-71
2021/09/28 02:10:34;;;;;;;1999.90;999.90;;;;;;;16.29;100.00;95831.63;5071278;28;20208;-69
2021/09/28 02:13:03;;;;;;;1999.90;999.90;;;;;;;16.30;100.00;95835.00;5071886;28;20224;-68
2021/09/28 02:15:30;;;;;;;1999.90;999.90;;;;;;;16.33;100.00;95840.41;5071952;28;20645;-69
2021/09/28 02:17:57;;;;;;;1999.90;999.90;;;;;;;16.34;100.00;95839.28;5071646;28;20196;-70
2021/09/28 02:20:24;;;;;;;1999.90;999.90;;;;;;;16.36;100.00;95831.88;5071531;28;20659;-69
2021/09/28 02:22:51;;;;;;;1999.90;999.90;;;;;;;16.31;100.00;95836.53;5071437;28;20226;-69
2021/09/28 02:25:21;;;;;;;1999.90;999.90;;;;;;;16.40;100.00;95839.09;5071827;28;20341;-69
2021/09/28 02:27:48;;;;;;;1999.90;999.90;;;;;;;16.34;100.00;95834.03;5071482;28;20704;-69
2021/09/28 02:30:17;;;;;;;1999.90;999.90;;;;;;;16.38;100.00;95836.81;5071749;28;20204;-69
2021/09/28 02:32:44;;;;;;;1999.90;999.90;;;;;;;16.42;100.00;95834.31;5071455;28;20680;-68
2021/09/28 02:35:11;;;;;;;1999.90;999.90;;;;;;;16.38;100.00;95831.56;5071668;28;20197;-67
2021/09/28 02:37:38;;;;;;;1999.90;999.90;;;;;;;16.46;100.00;95833.34;5071563;28;20204;-69
2021/09/28 02:40:07;;;;;;;1999.90;999.90;;;;;;;16.40;100.00;95825.97;5070954;28;20279;-70
2021/09/28 02:42:35;;;;;;;1999.90;999.90;;;;;;;16.36;100.00;95831.88;5067647;28;20242;-69
2021/09/28 02:45:03;;;;;;;1999.90;999.90;;;;;;;16.34;100.00;95833.28;5071064;28;20204;-68
2021/09/28 02:47:31;;;;;;;1999.90;999.90;;;;;;;16.29;100.00;95830.84;5070945;28;20742;-69
2021/09/28 02:49:58;;;;;;;1999.90;999.90;;;;;;;16.25;100.00;95841.22;5070746;28;20673;-68
2021/09/28 02:52:26;;;;;;;1999.90;999.90;;;;;;;16.23;100.00;95835.53;5069140;28;20196;-69
2021/09/28 02:54:55;;;;;;;1999.90;999.90;;;;;;;16.30;100.00;95840.25;5051262;28;20255;-69
2021/09/28 02:57:22;;;;;;;1999.90;999.90;;;;;;;16.28;100.00;95845.06;5050498;28;20294;-69
2021/09/28 02:59:49;;;;;;;1999.90;999.90;;;;;;;16.31;100.00;95847.81;5050754;28;20201;-69
2021/09/28 03:02:16;;;;;;;1999.90;999.90;;;;;;;16.31;100.00;95853.06;5050588;28;20689;-69
2021/09/28 03:04:45;;;;;;;1999.90;999.90;;;;;;;16.35;100.00;95846.06;5050538;28;20200;-69
2021/09/28 03:07:12;;;;;;;1999.90;999.90;;;;;;;16.35;100.00;95855.81;5051084;28;20233;-68
2021/09/28 03:09:39;;;;;;;1999.90;999.90;;;;;;;16.29;100.00;95859.69;5050858;28;20293;-69
2021/09/28 03:12:08;;;;;;;1999.90;999.90;;;;;;;16.22;100.00;95857.59;5050905;28;20288;-68
2021/09/28 03:14:35;;;;;;;1999.90;999.90;;;;;;;16.19;100.00;95852.97;5050447;28;20197;-69
2021/09/28 03:17:02;;;;;;;1999.90;999.90;;;;;;;16.11;100.00;95851.19;5050787;28;20201;-69
2021/09/28 03:19:29;;;;;;;1999.90;999.90;;;;;;;16.03;100.00;95853.88;5049890;28;20876;-70
2021/09/28 03:21:58;;;;;;;1999.90;999.90;;;;;;;16.10;100.00;95854.91;5050754;28;20728;-69
2021/09/28 03:24:25;;;;;;;1999.90;999.90;;;;;;;16.04;100.00;95856.16;5050366;28;20201;-69
2021/09/28 03:26:52;;;;;;;1999.90;999.90;;;;;;;15.96;100.00;95862.25;5049702;28;20319;-68
2021/09/28 03:29:19;;;;;;;1999.90;999.90;;;;;;;16.00;100.00;95855.28;5050727;28;20205;-69
2021/09/28 03:31:46;;;;;;;1999.90;999.90;;;;;;;15.96;100.00;95854.38;5049950;28;20197;-68
2021/09/28 03:34:13;;;;;;;1999.90;999.90;;;;;;;15.91;100.00;95846.69;5049622;28;20197;-69
2021/09/28 03:36:41;;;;;;;1999.90;999.90;;;;;;;15.84;100.00;95849.06;5049472;28;20200;-69
2021/09/28 03:39:11;;;;;;;1999.90;999.90;;;;;;;15.80;100.00;95841.06;5050015;28;20803;-70
2021/09/28 03:41:38;;;;;;;1999.90;999.90;;;;;;;15.85;100.00;95845.34;5050225;28;20246;-70
2021/09/28 03:44:05;;;;;;;1999.90;999.90;;;;;;;15.90;100.00;95853.03;5050238;28;20201;-69
2021/09/28 03:46:33;;;;;;;1999.90;999.90;;;;;;;15.80;100.00;95850.78;5049823;28;20201;-71
2021/09/28 03:49:00;;;;;;;1999.90;999.90;;;;;;;15.83;100.00;95858.00;5063006;28;20200;-71
2021/09/28 03:51:27;;;;;;;1999.90;999.90;;;;;;;15.82;100.00;95856.47;5065918;28;20667;-70
2021/09/28 03:53:54;;;;;;;1999.90;999.90;;;;;;;15.80;100.00;95866.50;5069377;28;20204;-71
2021/09/28 03:56:23;;;;;;;1999.90;999.90;;;;;;;15.78;100.00;95864.22;5069189;28;20250;-69
2021/09/28 03:58:50;;;;;;;1999.90;999.90;;;;;;;15.81;100.00;95854.94;5069224;28;20228;-71
2021/09/28 04:01:19;;;;;;;1999.90;999.90;;;;;;;15.85;100.00;95856.59;5069190;28;20228;-71
2021/09/28 04:03:46;;;;;;;1999.90;999.90;;;;;;;15.79;100.00;95859.75;5069237;28;20279;-69
2021/09/28 04:06:13;;;;;;;1999.90;999.90;;;;;;;15.70;100.00;95851.91;5058391;28;20632;-68
2021/09/28 04:08:40;;;;;;;1999.90;999.90;;;;;;;15.78;100.00;95866.06;5057716;28;20220;-69
2021/09/28 04:11:07;;;;;;;1999.90;999.90;;;;;;;15.81;100.00;95863.56;5068749;28;20206;-70
2021/09/28 04:13:36;;;;;;;1999.90;999.90;;;;;;;15.78;100.00;95866.81;5068654;28;20287;-69
2021/09/28 04:16:05;;;;;;;1999.90;999.90;;;;;;;15.81;100.00;95868.03;5068944;28;20232;-69
2021/09/28 04:18:33;;;;;;;1999.90;999.90;;;;;;;15.75;100.00;95869.28;5054979;28;20208;-69
2021/09/28 04:21:00;;;;;;;1999.90;999.90;;;;;;;15.67;100.00;95867.50;5067118;28;20380;-69
2021/09/28 04:23:27;;;;;;;1999.90;999.90;;;;;;;15.68;100.00;95859.31;5057890;28;20205;-70
2021/09/28 04:25:54;;;;;;;1999.90;999.90;;;;;;;15.67;100.00;95864.88;5051260;28;20205;-71
2021/09/28 04:28:22;;;;;;;1999.90;999.90;;;;;;;15.60;100.00;95848.88;5050972;28;20277;-72
2021/09/28 04:30:50;;;;;;;1999.90;999.90;;;;;;;15.69;100.00;95847.00;5048276;28;20684;-73
2021/09/28 04:33:17;;;;;;;1999.90;999.90;;;;;;;15.66;100.00;95850.22;5047972;28;20626;-72
2021/09/28 04:35:44;;;;;;;1999.90;999.90;;;;;;;15.67;100.00;95846.53;5048699;28;20220;-72
2021/09/28 04:38:11;;;;;;;1999.90;999.90;;;;;;;15.67;100.00;95852.53;5047541;28;20209;-72
2021/09/28 04:40:38;;;;;;;1999.90;999.90;;;;;;;15.61;100.00;95858.28;5048335;28;20289;-72
2021/09/28 04:43:05;;;;;;;1999.90;999.90;;;;;;;15.55;100.00;95854.28;5048778;28;20233;-72
2021/09/28 04:45:32;;;;;;;1999.90;999.90;;;;;;;15.34;100.00;95851.59;5048285;28;20204;-72
2021/09/28 04:48:01;;;;;;;1999.90;999.90;;;;;;;15.39;100.00;95854.03;5054777;28;20221;-72
2021/09/28 04:50:28;;;;;;;1999.90;999.90;;;;;;;15.39;100.00;95846.94;5068980;28;20200;-72
2021/09/28 04:52:55;;;;;;;1999.90;999.90;;;;;;;15.28;100.00;95839.75;5068877;28;20196;-73
2021/09/28 04:55:22;;;;;;;1999.90;999.90;;;;;;;15.32;100.00;95849.28;5069139;28;20196;-72
2021/09/28 04:57:49;;;;;;;1999.90;999.90;;;;;;;15.29;100.00;95836.78;5069009;28;20196;-72
2021/09/28 05:00:17;;;;;;;1999.90;999.90;;;;;;;15.31;100.00;95849.59;5068931;28;20204;-72
2021/09/28 05:02:45;;;;;;;1999.90;999.90;;;;;;;15.38;100.00;95858.50;5068808;28;20262;-72
2021/09/28 05:05:13;;;;;;;1999.90;999.90;;;;;;;15.35;100.00;95864.34;5069259;28;20456;-71
2021/09/28 05:07:40;;;;;;;1999.90;999.90;;;;;;;15.37;100.00;95861.44;5069113;28;20220;-72
2021/09/28 05:10:08;;;;;;;1999.90;999.90;;;;;;;15.42;100.00;95862.03;5069253;28;20207;-72
2021/09/28 05:12:36;;;;;;;1999.90;999.90;;;;;;;15.46;100.00;95870.03;5068855;28;20197;-70
2021/09/28 05:15:04;;;;;;;1999.90;999.90;;;;;;;15.47;100.00;95872.34;5069067;28;20196;-71
2021/09/28 05:17:31;;;;;;;1999.90;999.90;;;;;;;15.45;100.00;95876.34;5068987;28;20266;-71
2021/09/28 05:19:58;;;;;;;1999.90;999.90;;;;;;;15.50;100.00;95874.31;5068623;28;20642;-71
2021/09/28 05:22:26;;;;;;;1999.90;999.90;;;;;;;15.57;100.00;95866.00;5069001;28;20629;-70
2021/09/28 05:24:54;;;;;;;1999.90;999.90;;;;;;;15.64;100.00;95870.75;5069086;28;20208;-71
2021/09/28 05:27:21;;;;;;;1999.90;999.90;;;;;;;15.66;100.00;95869.34;5067331;28;20223;-71
2021/09/28 05:29:48;;;;;;;1999.90;999.90;;;;;;;15.74;100.00;95867.78;5067501;28;20200;-71
2021/09/28 05:32:15;;;;;;;1999.90;999.90;;;;;;;15.86;100.00;95875.72;5068570;28;20770;-71
2021/09/28 05:34:42;;;;;;;1999.90;999.90;;;;;;;15.89;100.00;95875.84;5068539;28;20193;-71
2021/09/28 05:37:09;;;;;;;1999.90;999.90;;;;;;;15.88;100.00;95881.41;5068950;28;20202;-71
2021/09/28 05:39:38;;;;;;;1999.90;999.90;;;;;;;15.90;100.00;95879.22;5068830;28;20204;-71
2021/09/28 05:42:05;;;;;;;1999.90;999.90;;;;;;;15.92;100.00;95877.84;5068495;28;20197;-71
2021/09/28 05:44:33;;;;;;;1999.90;999.90;;;;;;;16.00;100.00;95881.50;5068768;28;20215;-71
2021/09/28 05:47:01;;;;;;;1999.90;999.90;;;;;;;16.08;100.00;95883.31;5068874;28;20196;-71
2021/09/28 05:49:29;;;;;;;1999.90;999.90;;;;;;;16.27;100.00;95886.25;5070824;28;20266;-71
2021/09/28 05:51:58;;;;;;;1999.90;999.90;;;;;;;16.33;100.00;95894.72;5072138;28;20322;-72
2021/09/28 05:54:27;;;;;;;1999.90;999.90;;;;;;;16.33;100.00;95892.09;5071988;28;20196;-71
2021/09/28 05:56:56;;;;;;;1999.90;999.90;;;;;;;16.33;100.00;95895.47;5072113;28;20207;-71
2021/09/28 05:59:23;;;;;;;1999.90;999.90;;;;;;;16.43;100.00;95890.94;5072011;28;20361;-71
2021/09/28 06:01:50;;;;;;;1999.90;999.90;;;;;;;16.47;99.47;95895.22;5072308;28;20204;-71
2021/09/28 06:04:17;;;;;;;1999.90;999.90;;;;;;;16.49;100.00;95897.53;5072024;28;20207;-71
2021/09/28 06:06:45;;;;;;;1999.90;999.90;;;;;;;16.55;99.31;95897.00;5072203;28;20200;-71
2021/09/28 06:09:12;;;;;;;1999.90;999.90;;;;;;;16.53;98.66;95901.06;5071827;28;20220;-71
2021/09/28 06:11:40;;;;;;;1999.90;999.90;;;;;;;16.54;98.55;95897.31;5071893;28;20661;-71
2021/09/28 06:14:09;;;;;;;1999.90;999.90;;;;;;;16.52;99.21;95894.25;5071885;28;20193;-71
2021/09/28 06:16:36;;;;;;;1999.90;999.90;;;;;;;16.57;98.17;95910.59;5071711;28;20197;-71
2021/09/28 06:19:03;;;;;;;1999.90;999.90;;;;;;;16.73;97.82;95908.16;5072033;28;20200;-71
2021/09/28 06:21:30;;;;;;;1999.90;999.90;;;;;;;16.75;96.58;95905.97;5071693;28;20264;-72
2021/09/28 06:23:57;;;;;;;1999.90;999.90;;;;;;;16.87;97.41;95903.41;5071984;28;20755;-71
2021/09/28 06:26:24;;;;;;;1999.90;999.90;;;;;;;16.91;97.45;95908.78;5072091;28;20239;-71
2021/09/28 06:28:51;;;;;;;1999.90;999.90;;;;;;;16.97;95.93;95907.50;5071940;28;20232;-71
2021/09/28 06:31:20;;;;;;;1999.90;999.90;;;;;;;16.93;96.79;95904.75;5071846;28;20196;-72
2021/09/28 06:33:46;;;;;;;1999.90;999.90;;;;;;;17.07;96.05;95912.34;5071710;28;20284;-73
2021/09/28 06:36:14;;;;;;;1999.90;999.90;;;;;;;17.08;95.21;95913.88;5071666;28;20270;-72
2021/09/28 06:38:41;;;;;;;1999.90;999.90;;;;;;;17.19;93.48;95926.25;5071773;28;20684;-72
2021/09/28 06:41:08;;;;;;;1999.90;999.90;;;;;;;17.19;92.85;95910.50;5071472;28;20581;-71
2021/09/28 06:43:35;;;;;;;1999.90;999.90;;;;;;;17.15;94.53;95914.88;5071284;28;20265;-71
2021/09/28 06:46:02;;;;;;;1999.90;999.90;;;;;;;17.20;94.55;95914.66;5071526;28;20274;-73
2021/09/28 06:48:30;;;;;;;1999.90;999.90;;;;;;;17.23;93.68;95915.13;5071272;28;20246;-73
2021/09/28 06:50:57;;;;;;;1999.90;999.90;;;;;;;17.30;94.45;95916.13;5071030;28;20296;-73
2021/09/28 06:53:24;;;;;;;1999.90;999.90;;;;;;;17.41;94.98;95913.84;5071185;28;20257;-72
2021/09/28 06:55:51;;;;;;;1999.90;999.90;;;;;;;17.46;91.96;95918.88;5071170;28;20205;-72
2021/09/28 06:58:18;;;;;;;1999.90;999.90;;;;;;;17.46;93.21;95918.88;5070869;28;20196;-72
2021/09/28 07:00:45;;;;;;;1999.90;999.90;;;;;;;17.48;93.60;95921.97;5070176;28;20193;-72
2021/09/28 07:03:12;;;;;;;1999.90;999.90;;;;;;;17.45;93.05;95917.34;5071065;28;20236;-72
2021/09/28 07:05:41;;;;;;;1999.90;999.90;;;;;;;17.56;92.66;95929.75;5071160;28;20228;-72
2021/09/28 07:08:08;;;;;;;1999.90;999.90;;;;;;;17.69;92.62;95927.91;5070686;28;20319;-72
2021/09/28 07:10:35;;;;;;;1999.90;999.90;;;;;;;17.78;89.73;95931.22;5070658;28;20258;-71
2021/09/28 07:13:02;;;;;;;1999.90;999.90;;;;;;;17.90;91.14;95938.34;5071093;28;20647;-72
2021/09/28 07:15:29;;;;;;;1999.90;999.90;;;;;;;18.05;90.94;95935.81;5070640;28;20558;-72
2021/09/28 07:17:56;;;;;;;1999.90;999.90;;;;;;;18.06;89.80;95934.72;5070637;28;20193;-71
2021/09/28 07:20:23;;;;;;;1999.90;999.90;;;;;;;18.13;87.28;95930.78;5070612;28;20259;-71
2021/09/28 07:22:52;;;;;;;1999.90;999.90;;;;;;;18.24;87.83;95926.59;5071147;28;20204;-71
2021/09/28 07:25:19;;;;;;;1999.90;999.90;;;;;;;18.49;87.98;95928.09;5071737;28;20735;-71
2021/09/28 07:27:46;;;;;;;1999.90;999.90;;;;;;;18.58;87.75;95926.13;5070484;28;20664;-71
2021/09/28 07:30:15;;;;;;;1999.90;999.90;;;;;;;18.75;87.85;95927.72;5070679;28;20293;-72
2021/09/28 07:32:43;;;;;;;1999.90;999.90;;;;;;;18.88;84.13;95927.34;5070356;28;20201;-71
2021/09/28 07:35:10;;;;;;;1999.90;999.90;;;;;;;18.96;84.43;95930.19;5070239;28;20345;-71
2021/09/28 07:37:37;;;;;;;1999.90;999.90;;;;;;;19.01;81.72;95928.06;5070577;28;20739;-71
2021/09/28 07:40:07;;;;;;;1999.90;999.90;;;;;;;19.13;82.17;95928.00;5070189;28;20201;-71
2021/09/28 07:42:34;;;;;;;1999.90;999.90;;;;;;;19.40;80.73;95929.06;5070268;28;20610;-71
2021/09/28 07:45:03;;;;;;;1999.90;999.90;;;;;;;19.51;80.00;95935.41;5070527;28;20200;-71
2021/09/28 07:47:30;;;;;;;1999.90;999.90;;;;;;;19.38;80.21;95933.91;5069907;28;20992;-71
2021/09/28 07:49:57;;;;;;;1999.90;999.90;;;;;;;19.31;79.53;95933.75;5069469;28;20223;-71
2021/09/28 07:52:25;;;;;;;1999.90;999.90;;;;;;;19.39;79.86;95927.53;5069886;28;20627;-71
2021/09/28 07:54:52;;;;;;;1999.90;999.90;;;;;;;19.42;78.98;95932.16;5070262;28;20226;-71
2021/09/28 07:57:21;;;;;;;1999.90;999.90;;;;;;;19.21;79.57;95939.50;5059066;28;20208;-71
2021/09/28 07:59:51;;;;;;;1999.90;999.90;;;;;;;19.05;81.28;95936.81;5049796;28;20205;-71
2021/09/28 08:02:20;;;;;;;1999.90;999.90;;;;;;;19.25;81.71;95929.81;5049909;28;20229;-71
2021/09/28 08:04:47;;;;;;;1999.90;999.90;;;;;;;19.40;80.94;95933.56;5049604;28;20202;-72
2021/09/28 08:07:15;;;;;;;1999.90;999.90;;;;;;;19.55;81.29;95941.53;5049752;28;20638;-70
2021/09/28 08:09:42;;;;;;;1999.90;999.90;;;;;;;19.54;80.19;95937.38;5049625;28;20225;-71
2021/09/28 08:12:10;;;;;;;1999.90;999.90;;;;;;;19.57;77.92;95934.06;5049415;28;20631;-73
2021/09/28 08:14:39;;;;;;;1999.90;999.90;;;;;;;19.75;79.16;95942.41;5049508;28;20288;-71
2021/09/28 08:17:07;;;;;;;1999.90;999.90;;;;;;;19.84;81.37;95940.34;5049753;28;20201;-72
2021/09/28 08:19:38;;;;;;;1999.90;999.90;;;;;;;19.88;79.93;95937.78;5049358;28;20236;-72
2021/09/28 08:22:07;;;;;;;1999.90;999.90;;;;;;;19.98;78.22;95940.69;5049904;28;20203;-71
2021/09/28 08:24:40;;;;;;;1999.90;999.90;;;;;;;20.00;76.27;95937.72;5049706;28;20274;-70
2021/09/28 08:29:53;;;;;;;1999.90;999.90;;;;;;;20.02;78.18;95948.69;5049282;28;20208;-70
2021/09/28 08:32:20;;;;;;;1999.90;999.90;;;;;;;20.02;76.15;95938.91;5049278;28;20279;-71
2021/09/28 08:34:48;;;;;;;1999.90;999.90;;;;;;;20.05;77.56;95945.34;5049501;28;20302;-71
2021/09/28 08:37:15;;;;;;;1999.90;999.90;;;;;;;20.17;76.40;95953.19;5049394;28;20218;-71
2021/09/28 08:39:42;;;;;;;1999.90;999.90;;;;;;;20.22;76.63;95942.38;5049299;28;20208;-71
2021/09/28 08:42:10;;;;;;;1999.90;999.90;;;;;;;20.29;76.85;95945.16;5049146;28;20282;-72
2021/09/28 08:44:37;;;;;;;1999.90;999.90;;;;;;;20.52;76.54;95946.03;5049068;28;20672;-70
2021/09/28 08:47:06;;;;;;;1999.90;999.90;;;;;;;20.67;74.49;95949.00;5049288;28;20267;-70
2021/09/28 08:49:33;;;;;;;1999.90;999.90;;;;;;;20.69;76.10;95950.19;5049243;28;20229;-70
2021/09/28 08:52:03;;;;;;;1999.90;999.90;;;;;;;20.82;77.04;95948.94;5049368;28;20687;-71
2021/09/28 08:54:31;;;;;;;1999.90;999.90;;;;;;;21.01;74.37;95946.31;5068186;28;20261;-71
2021/09/28 08:56:58;;;;;;;1999.90;999.90;;;;;;;21.21;73.20;95949.72;5069044;28;20295;-70
2021/09/28 08:59:39;;;;;;;1999.90;999.90;;;;;;;21.26;73.31;95951.31;5068872;28;20222;-70
2021/09/28 09:02:09;;;;;;;1999.90;999.90;;;;;;;21.34;71.59;95943.16;5069397;28;20191;-70
2021/09/28 09:04:37;;;;;;;1999.90;999.90;;;;;;;21.25;70.73;95941.84;5069006;28;20200;-70
2021/09/28 09:07:21;;;;;;;1999.90;999.90;;;;;;;21.33;74.34;95946.16;5069188;28;20220;-70
2021/09/28 09:09:49;;;;;;;1999.90;999.90;;;;;;;21.26;74.38;95940.75;5068868;28;20258;-70
2021/09/28 09:12:29;;;;;;;1999.90;999.90;;;;;;;21.43;74.45;95938.41;5068790;28;20588;-70
2021/09/28 09:15:16;;;;;;;1999.90;999.90;;;;;;;21.69;73.50;95943.00;5069296;28;20276;-70
2021/09/28 09:17:45;;;;;;;1999.90;999.90;;;;;;;21.66;72.90;95943.72;5069016;28;20188;-70
2021/09/28 09:20:27;;;;;;;1999.90;999.90;;;;;;;21.69;72.65;95939.59;5068605;28;20233;-70
2021/09/28 09:22:54;;;;;;;1999.90;999.90;;;;;;;21.77;71.10;95930.63;5068763;28;20196;-69
2021/09/28 09:25:23;;;;;;;1999.90;999.90;;;;;;;21.78;73.13;95930.28;5072776;28;20231;-69
2021/09/28 09:27:51;;;;;;;1999.90;999.90;;;;;;;21.66;71.90;95924.44;5073044;28;20196;-70
2021/09/28 09:30:21;;;;;;;1999.90;999.90;;;;;;;21.68;71.26;95919.53;5072558;28;20810;-70
2021/09/28 09:32:52;;;;;;;1999.90;999.90;;;;;;;21.56;71.36;95925.78;5072861;28;20200;-69
2021/09/28 09:35:24;;;;;;;1999.90;999.90;;;;;;;21.73;71.83;95921.88;5072569;28;20224;-69
2021/09/28 09:37:52;;;;;;;1999.90;999.90;;;;;;;21.65;71.12;95922.91;5072673;28;20653;-70
2021/09/28 09:40:32;;;;;;;1999.90;999.90;;;;;;;21.68;73.08;95925.59;5072799;28;20236;-70
2021/09/28 09:42:59;;;;;;;1999.90;999.90;;;;;;;21.48;70.79;95919.59;5072861;28;20226;-69
2021/09/28 09:45:27;;;;;;;1999.90;999.90;;;;;;;21.47;71.90;95915.41;5072749;28;20250;-70
2021/09/28 09:47:55;;;;;;;1999.90;999.90;;;;;;;21.41;70.84;95919.50;5072265;28;20204;-69
2021/09/28 09:50:24;;;;;;;1999.90;999.90;;;;;;;21.40;73.44;95920.59;5072438;28;20282;-72
2021/09/28 09:53:10;;;;;;;1999.90;999.90;;;;;;;21.42;73.37;95918.34;5072463;28;20193;-69
2021/09/28 09:55:40;;;;;;;1999.90;999.90;;;;;;;21.66;71.29;95919.91;5072456;28;20275;-70
2021/09/28 09:58:08;;;;;;;1999.90;999.90;;;;;;;21.67;71.18;95921.41;5071705;28;20199;-70
2021/09/28 10:00:37;;;;;;;1999.90;999.90;;;;;;;21.83;71.43;95918.66;5072027;28;20192;-70
2021/09/28 10:03:08;;;;;;;1999.90;999.90;;;;;;;21.97;73.40;95918.88;5072063;28;20291;-70
2021/09/28 10:05:36;;;;;;;1999.90;999.90;;;;;;;21.96;70.21;95914.75;5072038;28;20242;-70
2021/09/28 10:08:07;;;;;;;1999.90;999.90;;;;;;;22.17;70.41;95903.66;5071920;28;20261;-70
2021/09/28 10:10:34;;;;;;;1999.90;999.90;;;;;;;22.20;70.71;95908.25;5071903;28;20224;-70
2021/09/28 10:13:03;;;;;;;1999.90;999.90;;;;;;;22.18;69.05;95903.31;5072138;28;20196;-70
2021/09/28 10:15:30;;;;;;;1999.90;999.90;;;;;;;22.29;67.56;95906.13;5071818;28;20197;-70
2021/09/28 10:17:57;;;;;;;1999.90;999.90;;;;;;;22.27;69.80;95909.13;5071866;28;20300;-70
2021/09/28 10:20:31;;;;;;;1999.90;999.90;;;;;;;22.45;68.06;95896.13;5071852;28;20232;-70
2021/09/28 10:22:59;;;;;;;1999.90;999.90;;;;;;;22.52;68.49;95898.06;5072080;28;20216;-70
2021/09/28 10:25:35;;;;;;;1999.90;999.90;;;;;;;22.57;66.47;95901.19;5071517;28;20312;-69
2021/09/28 10:28:28;;;;;;;1999.90;999.90;;;;;;;22.54;69.04;95904.56;5071644;28;20241;-69
2021/09/28 10:30:55;;;;;;;1999.90;999.90;;;;;;;22.39;67.96;95904.72;5071752;28;20224;-70
2021/09/28 10:33:31;;;;;;;1999.90;999.90;;;;;;;22.50;70.98;95903.00;5071729;28;20272;-69
2021/09/28 10:36:02;;;;;;;1999.90;999.90;;;;;;;22.55;65.68;95898.16;5070267;28;20267;-70
2021/09/28 10:38:46;;;;;;;1999.90;999.90;;;;;;;22.48;69.08;95899.94;5071433;28;20188;-69
2021/09/28 10:41:52;;;;;;;1999.90;999.90;;;;;;;22.46;66.99;95899.53;5071385;28;20188;-69
2021/09/28 10:44:44;;;;;;;1999.90;999.90;;;;;;;22.19;66.86;95893.50;5071301;28;20644;-69
2021/09/28 10:47:47;;;;;;;1999.90;999.90;;;;;;;22.16;nan;95895.00;5071251;28;20757;-69
2021/09/28 10:50:22;;;;;;;1999.90;999.90;;;;;;;22.36;68.96;95890.34;5071003;28;20662;-70
2021/09/28 10:52:50;;;;;;;1999.90;999.90;;;;;;;22.37;67.44;95880.47;5071189;28;20222;-69
2021/09/28 10:55:23;;;;;;;1999.90;999.90;;;;;;;22.52;66.96;95882.19;5071237;28;20204;-69
2021/09/28 10:58:03;;;;;;;1999.90;999.90;;;;;;;22.45;69.51;95882.13;5071093;28;20197;-69
2021/09/28 11:00:52;;;;;;;1999.90;999.90;;;;;;;22.53;67.79;95879.19;5070821;28;20193;-70